Time;durP1;ratioP1;P1;durP2;ratioP2;P2;SDS_P1;SDS_P2;PMS_P1;PMS_P2;Temp;Humidity;BMP_temperature;BMP_pressure;BME280_temperature;BME280_humidity;BME280_pressure;Samples;Min_cycle;Max_cycle;Signal;HPM_P1;HPM_P2
2023/06/16 00:01:08;;;;;;;9.85;6.90;;;20.10;68.40;;;;;;5059321;28;20408;-75
2023/06/16 00:03:35;;;;;;;10.38;6.90;;;20.00;68.80;;;;;;5076961;28;20025;-75
2023/06/16 00:06:13;;;;;;;10.05;6.97;;;20.00;68.60;;;;;;5059132;28;20052;-75
2023/06/16 00:08:46;;;;;;;13.10;6.93;;;19.90;68.70;;;;;;5076789;28;20100;-75
2023/06/16 00:11:14;;;;;;;10.90;7.05;;;19.90;68.70;;;;;;5077123;28;20048;-75
2023/06/16 00:13:41;;;;;;;8.35;5.72;;;19.90;68.80;;;;;;5076702;28;20027;-75
2023/06/16 00:16:07;;;;;;;8.43;6.13;;;19.90;68.60;;;;;;5076930;28;20099;-75
2023/06/16 00:18:33;;;;;;;7.03;5.28;;;19.90;68.50;;;;;;5076673;28;20108;-75
2023/06/16 00:23:24;;;;;;;8.95;5.15;;;20.00;68.00;;;;;;5076885;28;20032;-75
2023/06/16 00:25:50;;;;;;;5.88;4.43;;;20.00;68.00;;;;;;5076657;28;20351;-75
2023/06/16 00:28:16;;;;;;;6.15;4.80;;;20.00;67.90;;;;;;5076878;28;20013;-75
2023/06/16 00:30:43;;;;;;;7.05;4.88;;;20.10;67.80;;;;;;5077021;28;20350;-75
2023/06/16 00:33:10;;;;;;;6.45;4.85;;;20.20;67.80;;;;;;5076904;28;20016;-75
2023/06/16 00:35:36;;;;;;;5.85;4.40;;;20.20;67.80;;;;;;5076079;28;20095;-75
2023/06/16 00:38:02;;;;;;;7.35;5.57;;;20.20;67.80;;;;;;5076515;28;20085;-75
2023/06/16 00:40:28;;;;;;;8.88;5.63;;;20.20;67.60;;;;;;5076734;28;20075;-75
2023/06/16 00:42:58;;;;;;;8.88;6.30;;;20.20;67.60;;;;;;5076683;28;20118;-75
2023/06/16 00:45:25;;;;;;;9.30;5.85;;;20.20;67.50;;;;;;5076036;28;20111;-75
2023/06/16 00:47:51;;;;;;;7.63;4.75;;;20.20;67.20;;;;;;5075996;28;20028;-75
2023/06/16 00:50:18;;;;;;;7.45;4.68;;;20.20;67.00;;;;;;5076048;28;20460;-75
2023/06/16 00:52:45;;;;;;;7.20;4.70;;;20.30;66.80;;;;;;5075964;28;20067;-75
2023/06/16 00:55:11;;;;;;;6.82;4.80;;;20.30;66.80;;;;;;5076095;28;20448;-75
2023/06/16 00:57:39;;;;;;;9.48;5.05;;;20.30;66.90;;;;;;5075946;28;20469;-75
2023/06/16 01:00:07;;;;;;;7.88;5.40;;;20.30;66.90;;;;;;5075863;28;20040;-75
2023/06/16 01:02:34;;;;;;;6.78;5.07;;;20.30;67.00;;;;;;5076054;28;20457;-75
2023/06/16 01:05:02;;;;;;;5.93;4.65;;;20.20;67.00;;;;;;5076177;28;20345;-75
2023/06/16 01:08:12;;;;;;;7.82;5.15;;;20.20;67.10;;;;;;5075557;28;20086;-75
2023/06/16 01:11:05;;;;;;;6.70;5.05;;;20.20;67.60;;;;;;4975881;28;20121;-75
2023/06/16 01:13:52;;;;;;;6.63;5.05;;;20.20;67.40;;;;;;4975596;28;20030;-75
2023/06/16 01:16:28;;;;;;;7.43;5.10;;;20.10;67.30;;;;;;4975102;28;20066;-75
2023/06/16 01:18:55;;;;;;;7.80;5.13;;;20.00;67.30;;;;;;4975900;28;20110;-75
2023/06/16 01:21:38;;;;;;;6.80;4.97;;;20.00;67.30;;;;;;4975579;28;20055;-75
2023/06/16 01:24:18;;;;;;;12.53;5.40;;;20.00;67.30;;;;;;4975695;28;20035;-75
2023/06/16 01:26:51;;;;;;;6.55;4.82;;;19.90;67.50;;;;;;4974943;28;20042;-75
2023/06/16 01:29:21;;;;;;;;;;;19.90;67.60;;;;;;4975407;28;20039;-75
2023/06/16 01:31:49;;;;;;;6.65;4.57;;;19.80;68.00;;;;;;4974888;28;19913;-75
2023/06/16 01:34:16;;;;;;;7.90;5.22;;;19.80;67.70;;;;;;4974161;28;20097;-75
2023/06/16 01:36:43;;;;;;;7.28;5.10;;;19.70;67.70;;;;;;4974875;28;20085;-75
2023/06/16 01:39:11;;;;;;;9.20;6.05;;;19.70;67.80;;;;;;4975153;28;20042;-75
2023/06/16 01:41:37;;;;;;;8.82;5.70;;;19.70;68.00;;;;;;4975321;28;20041;-75
2023/06/16 01:44:04;;;;;;;8.43;5.60;;;19.60;68.00;;;;;;4974696;28;20037;-75
2023/06/16 01:46:32;;;;;;;8.98;6.32;;;19.60;68.00;;;;;;5046239;28;20036;-75
2023/06/16 01:48:58;;;;;;;7.05;4.78;;;19.50;68.00;;;;;;5075671;28;20031;-75
2023/06/16 01:51:25;;;;;;;9.00;5.82;;;19.50;68.10;;;;;;5075371;28;20035;-75
2023/06/16 01:53:53;;;;;;;7.68;5.57;;;19.40;68.10;;;;;;5075330;28;20040;-75
2023/06/16 01:56:19;;;;;;;7.65;5.65;;;19.40;68.20;;;;;;5075248;28;20041;-75
2023/06/16 01:58:46;;;;;;;10.60;5.80;;;19.40;68.20;;;;;;5075291;28;20071;-76
2023/06/16 02:01:29;;;;;;;8.63;5.35;;;19.40;68.30;;;;;;5075245;28;20028;-75
2023/06/16 02:04:09;;;;;;;7.57;5.18;;;19.40;68.20;;;;;;5075002;28;20048;-75
2023/06/16 02:06:58;;;;;;;9.05;5.40;;;19.40;68.20;;;;;;5074932;28;20060;-74
2023/06/16 02:09:25;;;;;;;5.80;4.95;;;19.40;68.20;;;;;;5075506;28;20017;-75
2023/06/16 02:11:53;;;;;;;7.07;5.50;;;19.30;68.30;;;;;;5074935;28;20016;-76
2023/06/16 02:14:20;;;;;;;6.47;4.97;;;19.20;68.40;;;;;;5074755;28;20404;-74
2023/06/16 02:16:46;;;;;;;7.60;5.38;;;19.20;68.60;;;;;;5074794;28;20048;-74
2023/06/16 02:19:12;;;;;;;6.90;5.30;;;19.20;68.60;;;;;;5074808;28;20099;-76
2023/06/16 02:21:41;;;;;;;7.07;5.20;;;19.10;68.70;;;;;;5074739;28;20107;-75
2023/06/16 02:24:08;;;;;;;11.25;7.35;;;19.10;68.80;;;;;;5075036;28;20024;-74
2023/06/16 02:26:35;;;;;;;9.73;6.78;;;19.00;69.20;;;;;;5074897;28;20032;-74
2023/06/16 02:29:01;;;;;;;7.93;5.68;;;19.00;69.20;;;;;;5057301;28;20446;-75
2023/06/16 02:31:27;;;;;;;8.32;5.35;;;18.90;69.10;;;;;;5074731;28;20103;-75
2023/06/16 02:33:55;;;;;;;8.10;5.32;;;18.90;69.20;;;;;;5074860;28;20059;-75
2023/06/16 02:36:21;;;;;;;8.85;5.95;;;18.90;69.20;;;;;;5074748;28;20450;-75
2023/06/16 02:38:47;;;;;;;9.55;5.50;;;18.90;69.40;;;;;;5074618;28;20017;-74
2023/06/16 02:41:13;;;;;;;9.70;6.03;;;18.80;69.40;;;;;;5074567;28;20028;-75
2023/06/16 02:43:39;;;;;;;8.30;5.57;;;18.80;69.60;;;;;;5074577;28;20031;-75
2023/06/16 02:46:06;;;;;;;9.32;5.88;;;18.80;69.60;;;;;;5075903;28;20029;-75
2023/06/16 02:48:32;;;;;;;7.95;5.47;;;18.80;69.60;;;;;;5078421;28;20020;-76
2023/06/16 02:50:58;;;;;;;9.25;6.05;;;18.80;69.70;;;;;;5078291;28;20039;-75
2023/06/16 02:53:25;;;;;;;8.02;5.40;;;18.70;69.70;;;;;;5060594;28;20111;-75
2023/06/16 02:55:53;;;;;;;8.20;6.03;;;18.70;69.80;;;;;;5078296;28;20020;-75
2023/06/16 02:58:20;;;;;;;9.73;6.00;;;18.70;69.90;;;;;;5078398;28;20025;-75
2023/06/16 03:00:47;;;;;;;7.20;5.25;;;18.60;69.90;;;;;;5078181;28;20024;-75
2023/06/16 03:03:12;;;;;;;9.57;5.20;;;18.60;70.00;;;;;;5078300;28;20088;-75
2023/06/16 03:05:39;;;;;;;9.98;6.28;;;18.60;70.10;;;;;;5078309;28;20463;-75
2023/06/16 03:08:04;;;;;;;10.68;6.60;;;18.60;70.10;;;;;;5077968;28;20020;-75
2023/06/16 03:10:30;;;;;;;8.18;5.50;;;18.50;70.20;;;;;;5078145;28;20082;-75
2023/06/16 03:12:56;;;;;;;8.23;5.63;;;18.50;70.30;;;;;;5077929;28;20149;-75
2023/06/16 03:15:27;;;;;;;9.60;6.45;;;18.50;70.30;;;;;;5078341;28;20029;-75
2023/06/16 03:17:53;;;;;;;10.00;6.43;;;18.50;70.30;;;;;;5077800;28;20523;-75
2023/06/16 03:20:21;;;;;;;10.48;6.13;;;18.40;70.40;;;;;;5077839;28;20033;-75
2023/06/16 03:22:47;;;;;;;9.68;6.18;;;18.40;70.50;;;;;;5077695;28;20032;-75
2023/06/16 03:25:15;;;;;;;11.68;6.82;;;18.40;70.60;;;;;;5059991;28;20036;-75
2023/06/16 03:27:41;;;;;;;8.13;6.13;;;18.30;70.70;;;;;;5077861;28;20085;-75
2023/06/16 03:30:09;;;;;;;9.77;6.22;;;18.30;70.80;;;;;;5077625;28;20341;-75
2023/06/16 03:32:37;;;;;;;8.25;5.90;;;18.20;70.70;;;;;;5077829;28;20154;-75
2023/06/16 03:35:04;;;;;;;10.85;7.28;;;18.20;70.90;;;;;;5077249;28;20048;-75
2023/06/16 03:37:31;;;;;;;8.35;6.15;;;18.20;71.20;;;;;;5060492;28;20025;-75
2023/06/16 03:39:57;;;;;;;9.13;6.10;;;18.20;71.40;;;;;;5060013;28;20035;-75
2023/06/16 03:42:25;;;;;;;9.45;6.28;;;18.10;71.30;;;;;;5077649;28;20024;-75
2023/06/16 03:44:51;;;;;;;8.25;5.43;;;18.10;71.30;;;;;;5077309;28;20033;-75
2023/06/16 03:47:20;;;;;;;8.65;5.85;;;18.10;71.40;;;;;;5077159;28;20021;-75
2023/06/16 03:49:48;;;;;;;9.55;5.88;;;18.20;71.40;;;;;;5077300;28;20021;-75
2023/06/16 03:52:14;;;;;;;8.57;5.90;;;18.20;71.30;;;;;;5077642;28;20036;-75
2023/06/16 03:54:40;;;;;;;8.30;6.07;;;18.20;71.30;;;;;;5077161;28;20024;-75
2023/06/16 03:57:06;;;;;;;7.63;5.43;;;18.30;71.30;;;;;;5076354;28;20045;-75
2023/06/16 03:59:32;;;;;;;8.13;5.20;;;18.20;71.20;;;;;;5059340;28;20335;-75
2023/06/16 04:01:58;;;;;;;8.00;5.70;;;18.20;71.10;;;;;;5077565;28;20078;-75
2023/06/16 04:04:27;;;;;;;9.18;5.78;;;18.30;71.10;;;;;;5077215;28;20024;-75
2023/06/16 04:06:53;;;;;;;8.25;5.80;;;18.30;71.00;;;;;;5059865;28;20048;-75
2023/06/16 04:09:19;;;;;;;7.57;5.35;;;18.30;71.00;;;;;;5077107;28;20417;-75
2023/06/16 04:11:45;;;;;;;8.77;5.63;;;18.40;71.00;;;;;;5076832;28;20074;-75
2023/06/16 04:14:11;;;;;;;9.77;6.72;;;18.40;71.00;;;;;;5077285;28;20346;-75
2023/06/16 04:16:40;;;;;;;10.05;6.65;;;18.40;70.90;;;;;;5076655;28;20070;-75
2023/06/16 04:19:06;;;;;;;9.60;5.97;;;18.50;70.90;;;;;;5076907;28;20032;-75
2023/06/16 04:21:32;;;;;;;7.45;5.30;;;18.60;70.70;;;;;;5076549;28;20052;-76
2023/06/16 04:23:58;;;;;;;11.48;7.07;;;18.70;70.40;;;;;;5076813;28;20029;-76
2023/06/16 04:26:26;;;;;;;10.02;6.80;;;18.80;70.10;;;;;;5076371;28;20123;-76
2023/06/16 04:28:55;;;;;;;9.10;6.05;;;18.90;70.20;;;;;;5076713;28;20036;-76
2023/06/16 04:31:22;;;;;;;8.80;5.97;;;19.10;69.90;;;;;;5076345;28;20351;-76
2023/06/16 04:33:48;;;;;;;8.35;5.85;;;19.30;69.60;;;;;;5076152;28;20052;-76
2023/06/16 04:36:16;;;;;;;6.78;4.85;;;19.40;69.20;;;;;;5076310;28;20025;-76
2023/06/16 04:38:43;;;;;;;7.50;5.32;;;19.60;68.90;;;;;;5076230;28;20043;-77
2023/06/16 04:41:09;;;;;;;7.18;4.78;;;19.90;68.40;;;;;;5076429;28;20099;-77
2023/06/16 04:43:35;;;;;;;8.25;5.43;;;20.10;67.90;;;;;;5076697;28;20155;-77
2023/06/16 04:46:01;;;;;;;7.78;5.20;;;20.40;67.60;;;;;;5075967;28;20024;-77
2023/06/16 04:48:27;;;;;;;8.40;5.40;;;20.60;67.20;;;;;;5076541;28;20020;-77
2023/06/16 04:51:05;;;;;;;8.20;5.53;;;20.80;67.10;;;;;;5076048;28;20350;-77
2023/06/16 04:53:33;;;;;;;8.45;5.10;;;21.40;67.10;;;;;;5075976;28;20024;-77
2023/06/16 04:56:01;;;;;;;8.55;4.78;;;22.30;65.80;;;;;;5075699;28;20035;-77
2023/06/16 04:58:27;;;;;;;7.10;4.88;;;23.40;64.10;;;;;;5076506;28;20066;-77
2023/06/16 05:00:53;;;;;;;8.27;5.20;;;24.40;61.80;;;;;;5076346;28;20025;-77
2023/06/16 05:03:21;;;;;;;6.50;5.03;;;25.40;59.60;;;;;;5075759;28;20013;-77
2023/06/16 05:05:47;;;;;;;6.38;5.07;;;26.40;57.40;;;;;;5075681;28;20458;-77
2023/06/16 05:08:13;;;;;;;6.78;4.50;;;27.40;55.20;;;;;;5075611;28;20446;-77
2023/06/16 05:10:40;;;;;;;5.95;4.40;;;28.20;53.30;;;;;;5075707;28;20051;-77
2023/06/16 05:13:05;;;;;;;8.30;4.78;;;29.00;51.90;;;;;;5058060;28;20082;-77
2023/06/16 05:15:31;;;;;;;6.95;4.47;;;29.80;50.40;;;;;;5075520;28;20028;-77
2023/06/16 05:17:57;;;;;;;8.07;5.40;;;30.50;48.70;;;;;;5075582;28;20465;-77
2023/06/16 05:20:23;;;;;;;7.68;5.93;;;31.20;47.20;;;;;;5075524;28;20024;-77
2023/06/16 05:22:49;;;;;;;6.60;4.28;;;31.80;45.80;;;;;;5075476;28;20327;-78
2023/06/16 05:25:15;;;;;;;8.10;4.85;;;32.20;45.00;;;;;;5075879;28;20032;-76
2023/06/16 05:27:42;;;;;;;4.78;4.22;;;32.60;44.30;;;;;;5075309;28;20032;-76
2023/06/16 05:30:08;;;;;;;7.72;4.78;;;33.20;43.70;;;;;;5075913;28;20025;-76
2023/06/16 05:32:34;;;;;;;7.30;4.88;;;33.80;42.80;;;;;;5075231;28;20016;-76
2023/06/16 05:35:00;;;;;;;7.07;4.40;;;34.40;41.90;;;;;;5075000;28;20051;-76
2023/06/16 05:37:26;;;;;;;5.28;4.50;;;35.00;40.80;;;;;;5075828;28;20035;-76
2023/06/16 05:39:53;;;;;;;6.45;4.10;;;35.70;39.70;;;;;;5075401;28;20055;-76
2023/06/16 05:42:19;;;;;;;7.15;4.35;;;36.10;39.10;;;;;;5075739;28;20036;-77
2023/06/16 05:44:45;;;;;;;5.38;4.13;;;36.50;38.50;;;;;;5075061;28;20035;-76
2023/06/16 05:47:11;;;;;;;5.82;4.10;;;37.10;38.00;;;;;;5075014;28;20434;-67
2023/06/16 05:49:38;;;;;;;5.82;4.32;;;37.70;37.30;;;;;;5075092;28;20039;-67
2023/06/16 05:52:06;;;;;;;5.25;4.07;;;38.20;36.70;;;;;;5075101;28;20021;-67
2023/06/16 05:54:37;;;;;;;11.43;4.53;;;38.70;36.00;;;;;;5075046;28;20058;-66
2023/06/16 05:57:04;;;;;;;7.87;4.67;;;39.20;35.20;;;;;;5075100;28;20028;-66
2023/06/16 05:59:30;;;;;;;7.30;4.38;;;39.70;34.80;;;;;;5074971;28;20258;-66
2023/06/16 06:01:56;;;;;;;5.03;4.30;;;40.00;34.10;;;;;;5075013;28;20020;-65
2023/06/16 06:04:32;;;;;;;11.77;4.53;;;40.50;33.10;;;;;;5074915;28;20464;-66
2023/06/16 06:07:00;;;;;;;15.25;4.85;;;40.90;32.50;;;;;;5074885;28;20028;-65
2023/06/16 06:09:26;;;;;;;25.52;6.05;;;41.30;32.40;;;;;;5074955;28;20028;-65
2023/06/16 06:11:52;;;;;;;10.60;4.53;;;41.70;31.90;;;;;;5074951;28;20036;-67
2023/06/16 06:14:18;;;;;;;5.78;4.15;;;41.90;31.50;;;;;;5075195;28;20493;-68
2023/06/16 06:16:45;;;;;;;12.10;4.90;;;41.50;31.40;;;;;;5075368;28;20040;-75
2023/06/16 06:19:11;;;;;;;8.25;4.30;;;40.40;31.80;;;;;;5075150;28;20154;-75
2023/06/16 06:21:38;;;;;;;10.05;4.43;;;39.10;32.50;;;;;;5078048;28;20064;-77
2023/06/16 06:24:05;;;;;;;6.22;4.72;;;38.60;33.10;;;;;;5080892;28;20111;-75
2023/06/16 06:26:31;;;;;;;7.03;4.72;;;38.90;33.30;;;;;;5080621;28;20028;-75
2023/06/16 06:28:57;;;;;;;14.25;6.45;;;39.20;32.70;;;;;;5082545;28;20086;-75
2023/06/16 06:31:23;;;;;;;5.88;4.30;;;39.20;32.60;;;;;;5080539;28;20031;-76
2023/06/16 06:33:49;;;;;;;6.07;4.60;;;38.40;33.00;;;;;;5080064;28;20048;-76
2023/06/16 06:36:22;;;;;;;4.43;3.97;;;37.40;33.70;;;;;;5080053;28;20112;-76
2023/06/16 06:38:48;;;;;;;6.43;4.50;;;36.60;34.20;;;;;;5079609;28;20046;-76
2023/06/16 06:41:16;;;;;;;7.07;4.45;;;36.10;34.90;;;;;;5080350;28;20017;-76
2023/06/16 06:43:42;;;;;;;7.63;4.30;;;35.80;35.00;;;;;;5080990;28;20044;-76
2023/06/16 06:46:07;;;;;;;5.82;4.30;;;35.40;35.40;;;;;;5081296;28;20013;-76
2023/06/16 06:48:33;;;;;;;7.05;4.85;;;34.80;36.00;;;;;;5080997;28;20025;-76
2023/06/16 06:50:59;;;;;;;5.88;4.55;;;34.00;36.90;;;;;;5081119;28;20088;-76
2023/06/16 06:53:25;;;;;;;6.03;4.28;;;33.50;37.90;;;;;;5081153;28;20024;-76
2023/06/16 06:55:52;;;;;;;7.65;4.72;;;33.00;38.80;;;;;;5080926;28;20017;-76
2023/06/16 06:58:18;;;;;;;6.43;4.25;;;32.60;39.10;;;;;;5080463;28;20093;-76
2023/06/16 07:00:44;;;;;;;6.53;4.28;;;32.20;39.60;;;;;;5080881;28;20031;-76
2023/06/16 07:03:11;;;;;;;6.55;4.78;;;31.90;40.10;;;;;;5080673;28;20353;-77
2023/06/16 07:05:38;;;;;;;5.03;3.90;;;31.60;40.30;;;;;;5080679;28;20099;-76
2023/06/16 07:08:04;;;;;;;6.55;4.60;;;31.30;40.80;;;;;;5079902;28;20031;-76
2023/06/16 07:10:32;;;;;;;5.55;4.20;;;31.10;41.30;;;;;;5045944;28;20020;-76
2023/06/16 07:12:58;;;;;;;7.53;4.35;;;30.90;41.70;;;;;;5080351;28;20107;-76
2023/06/16 07:15:24;;;;;;;5.25;4.30;;;30.80;42.20;;;;;;5080243;28;20050;-76
2023/06/16 07:17:50;;;;;;;9.02;5.00;;;30.60;42.60;;;;;;5080200;28;20028;-76
2023/06/16 07:20:17;;;;;;;5.75;4.18;;;30.50;42.80;;;;;;5079952;28;20058;-76
2023/06/16 07:22:45;;;;;;;7.53;4.70;;;30.40;42.90;;;;;;5062055;28;20091;-76
2023/06/16 07:25:15;;;;;;;7.93;4.93;;;30.40;42.80;;;;;;5079706;28;20103;-76
2023/06/16 07:27:43;;;;;;;6.85;4.53;;;30.30;42.60;;;;;;5079802;28;20429;-76
2023/06/16 07:30:09;;;;;;;6.13;4.72;;;30.30;42.40;;;;;;5079638;28;20473;-76
2023/06/16 07:32:39;;;;;;;5.72;4.22;;;30.20;42.50;;;;;;5078938;28;20051;-76
2023/06/16 07:35:14;;;;;;;7.47;4.40;;;30.20;42.30;;;;;;5079273;28;20040;-76
2023/06/16 07:37:42;;;;;;;7.30;4.40;;;30.10;41.90;;;;;;5079442;28;20028;-76
2023/06/16 07:40:13;;;;;;;6.55;4.50;;;30.10;42.20;;;;;;5079830;28;20024;-76
2023/06/16 07:42:39;;;;;;;6.85;4.65;;;30.10;42.40;;;;;;5079078;28;20039;-76
2023/06/16 07:45:06;;;;;;;6.70;4.53;;;30.20;42.60;;;;;;5079547;28;20028;-76
2023/06/16 07:47:32;;;;;;;5.75;3.67;;;30.20;42.60;;;;;;5078883;28;20028;-76
2023/06/16 07:49:58;;;;;;;5.05;4.15;;;30.10;42.60;;;;;;5078764;28;20070;-76
2023/06/16 07:52:24;;;;;;;6.03;4.70;;;30.10;42.60;;;;;;5079034;28;20350;-76
2023/06/16 07:54:50;;;;;;;7.13;4.40;;;30.00;42.70;;;;;;5078890;28;20039;-76
2023/06/16 07:57:16;;;;;;;5.75;4.22;;;29.90;42.80;;;;;;5079014;28;20036;-76
2023/06/16 07:59:42;;;;;;;5.95;4.78;;;29.90;43.00;;;;;;5060994;28;20024;-76
2023/06/16 08:02:08;;;;;;;8.73;4.35;;;30.00;43.00;;;;;;5078381;28;20388;-76
2023/06/16 08:04:34;;;;;;;7.47;4.93;;;30.20;42.50;;;;;;5078970;28;20028;-76
2023/06/16 08:07:00;;;;;;;7.03;4.43;;;30.40;41.80;;;;;;5078305;28;20043;-76
2023/06/16 08:09:26;;;;;;;6.50;5.13;;;30.60;41.60;;;;;;5078773;28;20016;-76
2023/06/16 08:11:52;;;;;;;7.78;5.20;;;30.70;41.20;;;;;;5079242;28;20025;-76
2023/06/16 08:14:18;;;;;;;7.88;4.78;;;30.80;40.60;;;;;;5078856;28;20051;-76
2023/06/16 08:16:45;;;;;;;6.32;4.40;;;30.80;40.60;;;;;;5079791;28;20029;-76
2023/06/16 08:19:11;;;;;;;5.38;3.92;;;30.90;40.80;;;;;;5079308;28;20024;-76
2023/06/16 08:21:37;;;;;;;6.25;4.35;;;31.00;40.80;;;;;;5079934;28;20028;-76
2023/06/16 08:24:05;;;;;;;6.00;4.10;;;31.00;40.70;;;;;;5079933;28;20081;-76
2023/06/16 08:26:30;;;;;;;5.75;4.00;;;30.90;40.40;;;;;;5079005;28;20040;-76
2023/06/16 08:28:56;;;;;;;4.30;3.67;;;30.90;40.60;;;;;;5079155;28;20025;-76
2023/06/16 08:31:22;;;;;;;4.88;3.92;;;30.90;40.90;;;;;;5081459;28;20035;-76
2023/06/16 08:33:50;;;;;;;3.88;3.47;;;30.90;40.80;;;;;;5082180;28;20024;-76
2023/06/16 08:36:17;;;;;;;4.40;3.60;;;30.90;40.60;;;;;;5082990;28;20024;-76
2023/06/16 08:38:43;;;;;;;4.45;3.50;;;30.90;40.50;;;;;;5081298;28;20395;-76
2023/06/16 08:41:14;;;;;;;5.57;4.07;;;30.90;40.40;;;;;;5080769;28;20048;-76
2023/06/16 08:43:42;;;;;;;5.60;4.05;;;30.80;40.40;;;;;;5081647;28;20100;-76
2023/06/16 08:46:08;;;;;;;5.70;4.10;;;30.70;40.30;;;;;;5082166;28;20025;-76
2023/06/16 08:48:39;;;;;;;5.72;4.20;;;30.60;40.20;;;;;;5082231;28;20031;-76
2023/06/16 08:51:09;;;;;;;6.45;4.30;;;30.50;40.40;;;;;;5063135;28;20028;-76
2023/06/16 08:53:38;;;;;;;4.20;3.80;;;30.40;40.70;;;;;;5081859;28;20066;-76
2023/06/16 08:56:07;;;;;;;5.45;4.07;;;30.40;41.00;;;;;;5080277;28;20438;-76
2023/06/16 08:58:37;;;;;;;5.78;4.10;;;30.40;41.20;;;;;;5079883;28;20052;-76
2023/06/16 09:01:06;;;;;;;7.32;4.75;;;30.40;41.40;;;;;;5080882;28;20024;-76
2023/06/16 09:03:34;;;;;;;4.85;4.18;;;30.50;41.30;;;;;;5082460;28;20029;-76
2023/06/16 09:06:02;;;;;;;5.07;3.85;;;30.40;41.20;;;;;;5080787;28;20087;-76
2023/06/16 09:08:29;;;;;;;5.35;4.40;;;30.30;41.10;;;;;;5080821;28;20028;-76
2023/06/16 09:10:56;;;;;;;5.15;4.10;;;30.20;40.40;;;;;;5080529;28;20104;-76
2023/06/16 09:13:24;;;;;;;6.50;4.32;;;30.00;40.10;;;;;;5079796;28;20077;-76
2023/06/16 09:15:51;;;;;;;5.88;4.30;;;29.90;40.40;;;;;;5079750;28;20107;-76
2023/06/16 09:18:18;;;;;;;6.43;4.70;;;29.90;40.50;;;;;;5079104;28;20123;-76
2023/06/16 09:20:52;;;;;;;4.97;4.30;;;29.90;39.90;;;;;;5078000;28;20028;-76
2023/06/16 09:23:29;;;;;;;5.80;4.25;;;29.90;40.00;;;;;;5078288;28;20032;-76
2023/06/16 09:25:56;;;;;;;6.03;4.03;;;29.80;40.00;;;;;;5065992;28;20028;-76
2023/06/16 09:28:36;;;;;;;5.57;3.83;;;29.80;39.70;;;;;;5083934;28;20028;-76
2023/06/16 09:31:07;;;;;;;3.95;3.47;;;29.70;39.60;;;;;;5077259;28;20025;-76
2023/06/16 09:33:34;;;;;;;5.78;3.60;;;29.70;39.90;;;;;;5077182;28;20024;-76
2023/06/16 09:36:01;;;;;;;4.88;3.70;;;29.80;40.10;;;;;;5077375;28;20044;-76
2023/06/16 09:38:38;;;;;;;5.65;3.90;;;29.90;40.20;;;;;;5078165;28;20020;-76
2023/06/16 09:41:10;;;;;;;5.50;4.03;;;29.90;40.10;;;;;;5077326;28;20020;-76
2023/06/16 09:43:42;;;;;;;6.68;4.95;;;29.80;39.90;;;;;;5077115;28;20060;-76
2023/06/16 09:46:13;;;;;;;6.90;5.00;;;29.70;40.20;;;;;;5059211;28;20472;-76
2023/06/16 09:48:50;;;;;;;6.22;4.40;;;29.60;40.10;;;;;;5076770;28;20024;-76
2023/06/16 09:51:24;;;;;;;7.28;4.75;;;29.40;40.30;;;;;;5059376;28;20028;-76
2023/06/16 09:54:00;;;;;;;6.32;5.10;;;29.40;40.60;;;;;;5077273;28;20020;-76
2023/06/16 09:56:29;;;;;;;7.13;4.47;;;29.40;40.70;;;;;;5077243;28;20475;-76
2023/06/16 09:58:57;;;;;;;6.38;4.85;;;29.40;40.70;;;;;;5077253;28;20021;-76
2023/06/16 10:01:26;;;;;;;5.72;4.50;;;29.30;40.90;;;;;;5076062;28;20024;-76
2023/06/16 10:03:55;;;;;;;5.88;4.90;;;29.30;40.90;;;;;;5076102;28;20113;-76
2023/06/16 10:06:28;;;;;;;6.85;4.85;;;29.40;41.10;;;;;;5077400;28;20035;-76
2023/06/16 10:08:58;;;;;;;7.65;5.35;;;29.40;40.90;;;;;;5077374;28;20029;-76
2023/06/16 10:11:25;;;;;;;6.18;4.72;;;29.30;40.90;;;;;;5077231;28;20024;-76
2023/06/16 10:13:54;;;;;;;7.00;4.50;;;29.20;41.20;;;;;;5076691;28;20430;-76
2023/06/16 10:16:23;;;;;;;6.00;4.53;;;29.30;41.40;;;;;;5076660;28;20017;-77
2023/06/16 10:18:51;;;;;;;7.13;4.35;;;29.40;41.40;;;;;;5077812;28;20082;-75
2023/06/16 10:21:19;;;;;;;6.70;4.60;;;29.40;41.30;;;;;;5059771;28;20023;-76
2023/06/16 10:23:45;;;;;;;6.35;4.50;;;29.40;41.00;;;;;;5077312;28;20510;-76
2023/06/16 10:26:12;;;;;;;9.00;4.78;;;29.40;41.00;;;;;;5076847;28;20032;-76
2023/06/16 10:28:40;;;;;;;4.70;3.88;;;29.40;41.20;;;;;;5077044;28;20055;-76
2023/06/16 10:31:08;;;;;;;8.55;4.40;;;29.30;41.40;;;;;;5077140;28;20026;-76
2023/06/16 10:34:04;;;;;;;6.20;4.60;;;29.40;41.40;;;;;;5076538;28;20024;-76
2023/06/16 10:36:40;;;;;;;5.68;3.97;;;29.40;41.00;;;;;;5073918;28;20052;-76
2023/06/16 10:39:12;;;;;;;5.95;4.55;;;29.40;41.30;;;;;;5075403;28;20020;-76
2023/06/16 10:41:58;;;;;;;6.03;4.88;;;29.50;41.30;;;;;;5075608;28;20036;-75
2023/06/16 10:44:30;;;;;;;5.63;4.43;;;29.40;40.90;;;;;;5058119;28;20052;-75
2023/06/16 10:47:05;;;;;;;6.45;4.20;;;29.40;41.20;;;;;;5074467;28;20081;-74
2023/06/16 10:49:31;;;;;;;5.35;4.47;;;29.40;41.50;;;;;;5074526;28;20052;-74
2023/06/16 10:51:59;;;;;;;4.68;4.00;;;29.40;41.80;;;;;;5074578;28;20465;-75
2023/06/16 10:54:43;;;;;;;5.75;4.18;;;29.50;42.00;;;;;;5075035;28;20445;-74
2023/06/16 10:57:10;;;;;;;6.97;4.65;;;29.50;41.90;;;;;;5074760;28;20029;-74
2023/06/16 11:00:01;;;;;;;7.28;5.43;;;29.50;41.50;;;;;;5074764;28;20032;-74
2023/06/16 11:02:30;;;;;;;7.28;4.40;;;29.40;41.50;;;;;;5074365;28;20028;-74
2023/06/16 11:05:08;;;;;;;6.32;4.22;;;29.30;41.80;;;;;;5074416;28;20024;-74
2023/06/16 11:07:56;;;;;;;4.43;3.85;;;29.30;41.90;;;;;;5076681;28;20463;-74
2023/06/16 11:10:24;;;;;;;5.13;4.18;;;29.40;42.10;;;;;;5063581;28;20444;-74
2023/06/16 11:12:50;;;;;;;4.43;4.03;;;29.50;42.10;;;;;;5060499;28;20023;-74
2023/06/16 11:15:18;;;;;;;5.93;4.32;;;29.50;42.20;;;;;;5077798;28;20024;-74
2023/06/16 11:17:48;;;;;;;6.60;4.45;;;29.60;42.20;;;;;;5077914;28;20025;-74
2023/06/16 11:20:15;;;;;;;5.57;4.10;;;29.60;42.10;;;;;;5077803;28;20469;-74
2023/06/16 11:22:45;;;;;;;6.65;4.15;;;29.60;42.10;;;;;;5078396;28;20048;-74
2023/06/16 11:25:12;;;;;;;5.15;3.83;;;29.70;42.10;;;;;;5077896;28;20440;-74
2023/06/16 11:27:38;;;;;;;5.50;4.57;;;29.80;42.30;;;;;;5077855;28;20174;-74
2023/06/16 11:30:05;;;;;;;7.32;4.50;;;29.90;42.20;;;;;;5060050;28;20040;-75
2023/06/16 11:32:34;;;;;;;5.68;4.10;;;29.90;41.90;;;;;;5077862;28;20111;-75
2023/06/16 11:35:01;;;;;;;5.82;4.07;;;29.80;42.00;;;;;;5077447;28;20048;-75
2023/06/16 11:37:54;;;;;;;5.43;4.22;;;29.80;42.30;;;;;;5077533;28;20028;-75
2023/06/16 11:40:28;;;;;;;6.10;4.35;;;29.90;42.20;;;;;;5077451;28;20033;-72
2023/06/16 11:42:59;;;;;;;6.22;4.30;;;29.80;41.80;;;;;;5060656;28;20035;-73
2023/06/16 11:45:36;;;;;;;6.57;4.80;;;29.70;42.00;;;;;;5077623;28;20060;-73
2023/06/16 11:48:04;;;;;;;5.68;4.28;;;29.60;41.80;;;;;;5077572;28;20111;-73
2023/06/16 11:50:30;;;;;;;6.70;4.65;;;29.50;42.10;;;;;;5060548;28;20070;-73
2023/06/16 11:52:57;;;;;;;6.57;4.97;;;29.60;42.20;;;;;;5077264;28;20025;-73
2023/06/16 11:55:25;;;;;;;6.38;4.63;;;29.70;42.20;;;;;;5077430;28;20073;-73
2023/06/16 11:57:51;;;;;;;6.53;4.40;;;29.70;42.00;;;;;;5077697;28;20025;-73
2023/06/16 12:02:45;;;;;;;6.47;4.70;;;29.60;42.30;;;;;;5077828;28;20029;-74
2023/06/16 12:05:24;;;;;;;6.75;4.43;;;29.70;42.20;;;;;;5060007;28;20025;-74
2023/06/16 12:07:50;;;;;;;6.18;4.47;;;29.80;41.80;;;;;;5076868;28;20462;-74
2023/06/16 12:10:16;;;;;;;6.20;4.32;;;29.70;41.90;;;;;;5077457;28;20035;-74
2023/06/16 12:12:43;;;;;;;6.30;4.43;;;29.70;41.90;;;;;;5076852;28;20499;-74
2023/06/16 12:15:16;;;;;;;6.40;3.90;;;29.60;41.90;;;;;;5077031;28;20099;-74
2023/06/16 12:17:42;;;;;;;4.97;4.20;;;29.60;42.00;;;;;;5077297;28;20334;-74
2023/06/16 12:20:11;;;;;;;4.85;4.22;;;29.50;42.00;;;;;;5076370;28;20097;-74
2023/06/16 12:22:38;;;;;;;6.05;4.05;;;29.50;42.10;;;;;;5076657;28;20122;-74
2023/06/16 12:25:15;;;;;;;5.18;4.00;;;29.50;42.20;;;;;;5076458;28;20039;-74
2023/06/16 12:27:45;;;;;;;6.10;4.45;;;29.40;41.90;;;;;;5076825;28;20021;-74
2023/06/16 12:30:11;;;;;;;6.05;4.22;;;29.40;42.10;;;;;;5076810;28;20036;-74
2023/06/16 12:32:41;;;;;;;5.72;4.40;;;29.40;42.20;;;;;;5076495;28;20039;-73
2023/06/16 12:35:08;;;;;;;7.07;4.38;;;29.60;42.20;;;;;;5076226;28;20106;-74
2023/06/16 12:37:34;;;;;;;5.80;4.03;;;29.70;42.00;;;;;;5082166;28;20099;-74
2023/06/16 12:40:08;;;;;;;5.40;3.75;;;29.90;41.60;;;;;;5082521;28;20028;-74
2023/06/16 12:42:35;;;;;;;6.38;4.10;;;30.00;41.50;;;;;;5076600;28;20033;-74
2023/06/16 12:45:04;;;;;;;6.28;4.15;;;30.00;41.30;;;;;;5059422;28;20380;-74
2023/06/16 12:47:32;;;;;;;6.88;4.03;;;30.10;41.10;;;;;;5076370;28;20055;-74
2023/06/16 12:50:00;;;;;;;4.38;3.85;;;30.10;40.60;;;;;;5076131;28;20024;-74
2023/06/16 12:52:27;;;;;;;5.57;4.07;;;30.00;40.60;;;;;;5076145;28;20025;-74
2023/06/16 12:54:56;;;;;;;5.85;4.47;;;29.90;40.70;;;;;;5076559;28;20031;-74
2023/06/16 12:57:24;;;;;;;6.47;4.18;;;29.80;40.70;;;;;;5076470;28;20028;-74